Terminal Aerodrome Forecast
Issued by NWS

Home | Current Version | Previous Version | Text Only | Print | Product List | Glossary On
Versions: 1 2 3 4 5 6 7 8 9 10 11 12 13
364
FTUS45 KABQ 290527
TAFFMN
TAF
KFMN 290527Z 2906/3006 29006KT P6SM VCSH OVC100
     FM290800 10007KT P6SM BKN080
     FM291800 27008KT P6SM BKN080
     FM292100 28017G27KT P6SM VCSH BKN080
     FM300300 29007KT P6SM BKN100=

USA.gov is the U.S. government's official web portal to all federal, state and local government web resources and services.